createdAt,value
2023-02-18T05:54:37.326Z,0
2023-02-18T05:55:38.502Z,0
2023-02-18T05:56:37.869Z,0
2023-02-18T05:57:38.519Z,0
2023-02-18T05:58:38.663Z,0
2023-02-18T05:59:37.573Z,0
2023-02-18T06:00:37.940Z,0
2023-02-18T06:01:38.119Z,0
2023-02-18T06:02:37.327Z,0
2023-02-18T06:03:37.503Z,0
2023-02-18T06:04:37.420Z,0
2023-02-18T06:05:37.537Z,0
2023-02-18T06:06:37.352Z,0
2023-02-18T06:07:36.964Z,0
2023-02-18T06:08:36.686Z,0
2023-02-18T06:09:38.509Z,0
2023-02-18T06:10:37.345Z,0
2023-02-18T06:11:38.336Z,0
2023-02-18T06:12:37.054Z,0
2023-02-18T06:13:36.714Z,0
2023-02-18T06:14:36.995Z,0
2023-02-18T06:15:38.342Z,0
2023-02-18T06:16:37.383Z,0
2023-02-18T06:17:38.040Z,0
2023-02-18T06:18:37.450Z,0
2023-02-18T06:19:37.219Z,0
2023-02-18T06:20:37.132Z,0
2023-02-18T06:21:37.066Z,0
2023-02-18T06:22:37.198Z,0
2023-02-18T06:23:37.290Z,0
2023-02-18T06:24:37.175Z,0
2023-02-18T06:25:36.464Z,0
2023-02-18T06:26:37.705Z,0
2023-02-18T06:27:38.421Z,0
2023-02-18T06:28:37.814Z,0
2023-02-18T06:29:37.328Z,0
2023-02-18T06:30:38.476Z,0
2023-02-18T06:31:39.226Z,0
2023-02-18T06:32:37.578Z,0
2023-02-18T06:33:38.010Z,0
2023-02-18T06:34:37.997Z,0
2023-02-18T06:35:37.781Z,5
2023-02-18T06:36:38.008Z,0
2023-02-18T06:37:36.750Z,0
2023-02-18T06:38:37.293Z,0
2023-02-18T06:39:37.184Z,5
2023-02-18T06:40:37.676Z,5
2023-02-18T06:41:37.901Z,0
2023-02-18T06:42:37.430Z,0
2023-02-18T06:43:37.578Z,0
2023-02-18T06:44:40.265Z,5
2023-02-18T06:45:37.403Z,5
2023-02-18T06:46:38.071Z,5
2023-02-18T06:47:37.254Z,10
2023-02-18T06:48:37.436Z,15
2023-02-18T06:49:38.283Z,15
2023-02-18T06:50:37.548Z,15
2023-02-18T06:51:38.125Z,15
2023-02-18T06:52:38.536Z,15
2023-02-18T06:53:37.529Z,15
2023-02-18T06:54:38.817Z,20
2023-02-18T06:55:38.066Z,15
2023-02-18T06:56:40.376Z,15
2023-02-18T06:57:38.247Z,15
2023-02-18T06:58:37.556Z,15
2023-02-18T06:59:38.460Z,20
2023-02-18T07:00:37.686Z,20
2023-02-18T07:01:37.356Z,20
2023-02-18T07:02:38.183Z,20
2023-02-18T07:03:37.587Z,20
2023-02-18T07:04:37.864Z,20
2023-02-18T07:05:37.618Z,25
2023-02-18T07:06:37.590Z,25
2023-02-18T07:07:37.560Z,30
2023-02-18T07:08:38.404Z,30
2023-02-18T07:09:38.652Z,35
2023-02-18T07:10:39.080Z,40
2023-02-18T07:11:37.758Z,40
2023-02-18T07:12:38.931Z,40
2023-02-18T07:13:37.552Z,40
2023-02-18T07:14:37.747Z,40
2023-02-18T07:15:37.417Z,40
2023-02-18T07:16:37.499Z,30
2023-02-18T07:17:37.283Z,25
2023-02-18T07:18:37.784Z,30
2023-02-18T07:19:37.475Z,30
2023-02-18T07:20:37.867Z,30
2023-02-18T07:21:38.122Z,30
2023-02-18T07:22:37.748Z,30
2023-02-18T07:23:37.907Z,30
2023-02-18T07:24:39.945Z,30
2023-02-18T07:25:37.297Z,35
2023-02-18T07:26:38.304Z,40
2023-02-18T07:27:37.047Z,45
2023-02-18T07:28:37.430Z,45
2023-02-18T07:29:37.490Z,50
2023-02-18T07:30:39.658Z,55
2023-02-18T07:31:39.214Z,50
2023-02-18T07:32:37.856Z,45
2023-02-18T07:33:37.347Z,45
2023-02-18T07:34:38.552Z,55
2023-02-18T07:35:37.723Z,70
2023-02-18T07:36:38.323Z,75
2023-02-18T07:37:37.551Z,60
2023-02-18T07:38:38.292Z,55
2023-02-18T07:39:37.972Z,55
2023-02-18T07:40:39.147Z,50
2023-02-18T07:41:37.926Z,55
2023-02-18T07:42:38.565Z,75
2023-02-18T07:43:39.400Z,75
2023-02-18T07:44:38.226Z,80
2023-02-18T07:45:39.020Z,105
2023-02-18T07:46:38.830Z,115
2023-02-18T07:47:37.772Z,95
2023-02-18T07:48:37.837Z,75
2023-02-18T07:49:37.236Z,85
2023-02-18T07:50:38.354Z,95
2023-02-18T07:51:38.416Z,110
2023-02-18T07:52:37.249Z,115
2023-02-18T07:53:38.036Z,105
2023-02-18T07:54:38.062Z,95
2023-02-18T07:55:38.548Z,85
2023-02-18T07:56:38.186Z,80
2023-02-18T07:57:38.108Z,80
2023-02-18T07:58:38.096Z,75
2023-02-18T07:59:38.793Z,75
2023-02-18T08:00:38.610Z,80
2023-02-18T08:01:38.393Z,85
2023-02-18T08:02:38.567Z,85
2023-02-18T08:03:38.004Z,90
2023-02-18T08:04:38.550Z,100
2023-02-18T08:05:39.252Z,100
2023-02-18T08:06:38.454Z,90
2023-02-18T08:07:38.505Z,80
2023-02-18T08:08:40.760Z,75
2023-02-18T08:09:37.511Z,80
2023-02-18T08:10:38.152Z,75
2023-02-18T08:11:37.716Z,75
2023-02-18T08:12:38.221Z,80
2023-02-18T08:13:37.946Z,85
2023-02-18T08:14:38.337Z,75
2023-02-18T08:15:38.060Z,65
2023-02-18T08:16:38.002Z,60
2023-02-18T08:17:38.458Z,55
2023-02-18T08:18:39.008Z,70
2023-02-18T08:19:38.798Z,75
2023-02-18T08:20:40.904Z,75
2023-02-18T08:21:38.266Z,75
2023-02-18T08:22:39.309Z,75
2023-02-18T08:23:38.222Z,80
2023-02-18T08:24:38.421Z,85
2023-02-18T08:25:39.624Z,85
2023-02-18T08:26:41.039Z,95
2023-02-18T08:27:38.068Z,105
2023-02-18T08:28:38.687Z,100
2023-02-18T08:29:38.137Z,75
2023-02-18T08:30:39.761Z,60
2023-02-18T08:31:39.878Z,55
2023-02-18T08:32:37.607Z,55
2023-02-18T08:33:38.796Z,50
2023-02-18T08:34:39.016Z,55
2023-02-18T08:35:37.897Z,55
2023-02-18T08:36:39.063Z,45
2023-02-18T08:38:01.155Z,35
2023-02-18T08:38:39.048Z,45
2023-02-18T08:39:41.999Z,55
2023-02-18T08:40:38.599Z,65
2023-02-18T08:41:39.139Z,65
2023-02-18T08:42:39.083Z,65
2023-02-18T08:43:38.457Z,55
2023-02-18T08:44:39.156Z,75
2023-02-18T08:45:39.965Z,70
2023-02-18T08:46:45.596Z,70
2023-02-18T08:48:30.582Z,60
2023-02-18T08:49:42.137Z,75
2023-02-18T08:50:41.029Z,85
2023-02-18T08:51:40.867Z,90
2023-02-18T08:52:41.430Z,105
2023-02-18T08:53:40.431Z,120
2023-02-18T08:54:40.855Z,130
2023-02-18T08:55:40.722Z,140
2023-02-18T08:56:40.749Z,135
2023-02-18T08:57:41.102Z,95
2023-02-18T08:58:40.918Z,100
2023-02-18T08:59:41.305Z,80
2023-02-18T09:00:41.666Z,80
2023-02-18T09:01:41.219Z,80
2023-02-18T09:02:41.726Z,80
2023-02-18T09:03:41.226Z,95
2023-02-18T09:04:40.833Z,105
2023-02-18T09:05:42.606Z,90
2023-02-18T09:06:40.411Z,95
2023-02-18T09:07:40.391Z,90
2023-02-18T09:08:41.417Z,85
2023-02-18T09:09:40.556Z,105
2023-02-18T09:10:40.888Z,100
2023-02-18T09:11:41.160Z,80
2023-02-18T09:12:40.876Z,70
2023-02-18T09:13:41.352Z,80
2023-02-18T09:14:41.677Z,70
2023-02-18T09:15:41.526Z,65
2023-02-18T09:16:42.116Z,80
2023-02-18T09:17:41.062Z,80
2023-02-18T09:18:42.240Z,85
2023-02-18T09:19:41.447Z,75
2023-02-18T09:20:42.382Z,90
2023-02-18T09:21:41.106Z,90
2023-02-18T09:22:42.085Z,75
2023-02-18T09:23:40.953Z,90
2023-02-18T09:24:40.964Z,85
2023-02-18T09:25:41.366Z,70
2023-02-18T09:26:40.675Z,70
2023-02-18T09:27:41.311Z,85
2023-02-18T09:28:41.016Z,80
2023-02-18T09:29:40.949Z,85
2023-02-18T09:30:42.130Z,85
2023-02-18T09:31:42.040Z,85
2023-02-18T09:32:45.559Z,90
2023-02-18T09:33:43.292Z,100
2023-02-18T09:34:40.786Z,135
2023-02-18T09:35:41.863Z,110
2023-02-18T09:36:40.901Z,115
2023-02-18T09:37:41.201Z,130
2023-02-18T09:38:41.448Z,135
2023-02-18T09:39:40.851Z,95
2023-02-18T09:40:41.091Z,110
2023-02-18T09:41:41.227Z,140
2023-02-18T09:42:40.876Z,130
2023-02-18T09:43:41.659Z,115
2023-02-18T09:44:40.746Z,125
2023-02-18T09:45:41.141Z,155
2023-02-18T09:46:41.319Z,130
2023-02-18T09:47:40.911Z,145
2023-02-18T09:48:41.500Z,160
2023-02-18T09:49:41.518Z,180
2023-02-18T09:50:41.947Z,185
2023-02-18T09:51:41.670Z,200
2023-02-18T09:52:42.517Z,210
2023-02-18T09:53:42.594Z,255
2023-02-18T09:54:42.855Z,220
2023-02-18T09:55:41.960Z,240
2023-02-18T09:56:45.180Z,210
2023-02-18T09:57:41.850Z,210
2023-02-18T09:58:41.348Z,180
2023-02-18T09:59:41.576Z,200
2023-02-18T10:00:41.216Z,185
2023-02-18T10:01:41.388Z,210
2023-02-18T10:02:42.067Z,215
2023-02-18T10:03:41.117Z,210
2023-02-18T10:04:41.854Z,225
2023-02-18T10:05:41.460Z,245
2023-02-18T10:06:41.397Z,200
2023-02-18T10:07:41.923Z,230
2023-02-18T10:08:41.176Z,255
2023-02-18T10:09:44.512Z,235
2023-02-18T10:10:41.199Z,215
2023-02-18T10:11:41.735Z,200
2023-02-18T10:12:44.549Z,245
2023-02-18T10:13:42.059Z,265
2023-02-18T10:14:41.733Z,275
2023-02-18T10:15:42.937Z,290
2023-02-18T10:16:42.077Z,310
2023-02-18T10:17:41.288Z,310
2023-02-18T10:18:42.992Z,310
2023-02-18T10:19:41.230Z,310
2023-02-18T10:20:41.944Z,320
2023-02-18T10:21:42.000Z,335
2023-02-18T10:22:41.500Z,310
2023-02-18T10:23:42.284Z,335
2023-02-18T10:24:41.576Z,310
2023-02-18T10:25:41.681Z,255
2023-02-18T10:26:42.394Z,250
2023-02-18T10:27:41.597Z,210
2023-02-18T10:28:41.764Z,195
2023-02-18T10:29:42.504Z,195
2023-02-18T10:30:41.538Z,160
2023-02-18T10:31:42.907Z,180
2023-02-18T10:32:41.803Z,175
2023-02-18T10:33:41.670Z,170
2023-02-18T10:34:41.993Z,170
2023-02-18T10:35:43.150Z,135
2023-02-18T10:36:42.638Z,165
2023-02-18T10:37:42.337Z,145
2023-02-18T10:38:42.475Z,155
2023-02-18T10:39:43.070Z,185
2023-02-18T10:40:42.026Z,185
2023-02-18T10:41:41.861Z,135
2023-02-18T10:42:41.961Z,125
2023-02-18T10:43:41.492Z,155
2023-02-18T10:44:41.559Z,195
2023-02-18T10:45:41.900Z,205
2023-02-18T10:46:42.150Z,245
2023-02-18T10:47:42.675Z,260
2023-02-18T10:48:42.023Z,240
2023-02-18T10:49:42.474Z,205
2023-02-18T10:50:42.368Z,215
2023-02-18T10:51:41.945Z,205
2023-02-18T10:52:42.398Z,145
2023-02-18T10:53:42.753Z,145
2023-02-18T10:54:41.352Z,150
2023-02-18T10:55:42.666Z,130
2023-02-18T10:56:42.099Z,140
2023-02-18T10:57:42.036Z,125
2023-02-18T10:58:42.469Z,135
2023-02-18T10:59:41.731Z,140
2023-02-18T11:00:42.246Z,150
2023-02-18T11:01:42.482Z,145
2023-02-18T11:02:42.542Z,150
2023-02-18T11:03:42.624Z,155
2023-02-18T11:04:42.915Z,200
2023-02-18T11:05:42.596Z,160
2023-02-18T11:06:42.548Z,160
2023-02-18T11:07:43.205Z,170
2023-02-18T11:08:43.386Z,165
2023-02-18T11:09:44.489Z,135
2023-02-18T11:10:42.314Z,120
2023-02-18T11:11:42.746Z,110
2023-02-18T11:12:44.008Z,95
2023-02-18T11:13:42.129Z,100
2023-02-18T11:14:42.662Z,120
2023-02-18T11:15:42.550Z,150
2023-02-18T11:16:42.606Z,160
2023-02-18T11:17:41.496Z,150
2023-02-18T11:18:41.922Z,140
2023-02-18T11:19:41.646Z,105
2023-02-18T11:20:42.301Z,120
2023-02-18T11:21:42.479Z,165
2023-02-18T11:22:42.585Z,150
2023-02-18T11:23:42.306Z,155
2023-02-18T11:24:42.669Z,140
2023-02-18T11:25:42.435Z,155
2023-02-18T11:26:43.339Z,130
2023-02-18T11:27:41.540Z,125
2023-02-18T11:28:43.751Z,155
2023-02-18T11:29:43.057Z,185
2023-02-18T11:30:43.440Z,210
2023-02-18T11:31:41.949Z,195
2023-02-18T11:32:42.054Z,185
2023-02-18T11:33:43.181Z,165
2023-02-18T11:34:42.130Z,150
2023-02-18T11:35:42.765Z,110
2023-02-18T11:36:42.982Z,115
2023-02-18T11:37:42.340Z,120
2023-02-18T11:38:43.881Z,160
2023-02-18T11:39:42.010Z,165
2023-02-18T11:40:42.582Z,120
2023-02-18T11:41:43.057Z,105
2023-02-18T11:42:42.863Z,90
2023-02-18T11:43:42.809Z,110
2023-02-18T11:44:43.256Z,120
2023-02-18T11:45:43.165Z,155
2023-02-18T11:46:43.440Z,175
2023-02-18T11:47:43.710Z,150
2023-02-18T11:48:44.498Z,155
2023-02-18T11:49:42.330Z,160
2023-02-18T11:50:43.180Z,145
2023-02-18T11:51:42.648Z,165
2023-02-18T11:52:43.204Z,140
2023-02-18T11:53:42.576Z,150
2023-02-18T11:54:42.118Z,145
2023-02-18T11:55:41.642Z,165
2023-02-18T11:56:42.317Z,170
2023-02-18T11:57:43.092Z,165
2023-02-18T11:58:42.487Z,175
2023-02-18T11:59:42.418Z,160
2023-02-18T12:00:43.560Z,140
2023-02-18T12:01:42.878Z,160
2023-02-18T12:02:43.760Z,175
2023-02-18T12:03:45.517Z,235
2023-02-18T12:04:42.354Z,255
2023-02-18T12:05:43.076Z,340
2023-02-18T12:06:43.285Z,320
2023-02-18T12:07:42.198Z,290
2023-02-18T12:08:43.786Z,295
2023-02-18T12:09:42.460Z,360
2023-02-18T12:10:42.626Z,320
2023-02-18T12:11:42.572Z,290
2023-02-18T12:12:42.747Z,290
2023-02-18T12:13:43.294Z,320
2023-02-18T12:14:42.998Z,355
2023-02-18T12:15:42.858Z,260
2023-02-18T12:16:43.885Z,215
2023-02-18T12:17:43.138Z,195
2023-02-18T12:18:48.083Z,180
2023-02-18T12:19:43.795Z,220
2023-02-18T12:20:42.825Z,200
2023-02-18T12:21:43.260Z,185
2023-02-18T12:22:43.531Z,145
2023-02-18T12:23:44.544Z,135
2023-02-18T12:24:44.198Z,165
2023-02-18T12:25:43.145Z,215
2023-02-18T12:26:43.754Z,200
2023-02-18T12:27:42.862Z,185
2023-02-18T12:28:44.583Z,205
2023-02-18T12:29:46.626Z,180
2023-02-18T12:30:44.563Z,200
2023-02-18T12:31:44.143Z,200
2023-02-18T12:32:43.993Z,220
2023-02-18T12:33:47.340Z,240
2023-02-18T12:34:43.055Z,230
2023-02-18T12:35:43.085Z,205
2023-02-18T12:36:42.834Z,195
2023-02-18T12:37:43.947Z,160
2023-02-18T12:38:42.958Z,170
2023-02-18T12:39:45.464Z,180
2023-02-18T12:40:44.433Z,170
2023-02-18T12:41:42.802Z,155
2023-02-18T12:42:43.853Z,150
2023-02-18T12:43:42.969Z,155
2023-02-18T12:44:45.716Z,180
2023-02-18T12:45:44.007Z,165
2023-02-18T12:46:43.395Z,160
2023-02-18T12:47:44.764Z,140
2023-02-18T12:48:42.774Z,170
2023-02-18T12:49:43.674Z,145
2023-02-18T12:50:43.271Z,130
2023-02-18T12:51:43.374Z,200
2023-02-18T12:52:42.762Z,220
2023-02-18T12:53:43.582Z,205
2023-02-18T12:54:43.999Z,180
2023-02-18T12:55:43.496Z,225
2023-02-18T12:56:44.158Z,225
2023-02-18T12:57:44.010Z,195
2023-02-18T12:58:44.421Z,210
2023-02-18T12:59:44.838Z,250
2023-02-18T13:00:44.021Z,235
2023-02-18T13:01:44.187Z,180
2023-02-18T13:02:44.100Z,155
2023-02-18T13:03:45.492Z,145
2023-02-18T13:04:47.231Z,195
2023-02-18T13:05:45.089Z,150
2023-02-18T13:06:43.619Z,125
2023-02-18T13:07:44.371Z,145
2023-02-18T13:08:44.876Z,135
2023-02-18T13:09:43.373Z,130
2023-02-18T13:10:44.619Z,90
2023-02-18T13:11:43.416Z,100
2023-02-18T13:12:46.744Z,115
2023-02-18T13:13:44.913Z,115
2023-02-18T13:14:43.529Z,125
2023-02-18T13:15:43.542Z,140
2023-02-18T13:16:44.529Z,145
2023-02-18T13:17:43.327Z,140
2023-02-18T13:18:43.424Z,140
2023-02-18T13:19:43.526Z,135
2023-02-18T13:20:44.716Z,120
2023-02-18T13:21:43.617Z,100
2023-02-18T13:22:44.062Z,120
2023-02-18T13:23:43.386Z,135
2023-02-18T13:24:45.004Z,150
2023-02-18T13:25:43.549Z,150
2023-02-18T13:26:43.683Z,145
2023-02-18T13:27:43.624Z,200
2023-02-18T13:28:43.777Z,195
2023-02-18T13:29:44.397Z,150
2023-02-18T13:30:44.268Z,120
2023-02-18T13:31:45.092Z,130
2023-02-18T13:32:44.292Z,155
2023-02-18T13:33:44.253Z,150
2023-02-18T13:34:44.647Z,190
2023-02-18T13:35:43.999Z,205
2023-02-18T13:36:44.953Z,225
2023-02-18T13:37:44.512Z,260
2023-02-18T13:38:44.710Z,235
2023-02-18T13:39:45.129Z,235
2023-02-18T13:40:44.526Z,190
2023-02-18T13:41:43.740Z,165
2023-02-18T13:42:44.435Z,125
2023-02-18T13:43:43.826Z,150
2023-02-18T13:44:43.751Z,165
2023-02-18T13:45:43.858Z,155
2023-02-18T13:46:44.133Z,145
2023-02-18T13:47:44.202Z,155
2023-02-18T13:48:45.659Z,145
2023-02-18T13:49:43.995Z,160
2023-02-18T13:50:45.374Z,205
2023-02-18T13:51:43.920Z,215
2023-02-18T13:52:44.710Z,210
2023-02-18T13:53:44.177Z,185
2023-02-18T13:54:43.904Z,190
2023-02-18T13:55:43.489Z,200
2023-02-18T13:56:44.210Z,180
2023-02-18T13:57:43.641Z,165
2023-02-18T13:58:45.263Z,200
2023-02-18T13:59:44.146Z,175
2023-02-18T14:00:45.419Z,170
2023-02-18T14:01:43.821Z,210
2023-02-18T14:02:44.324Z,175
2023-02-18T14:03:44.214Z,190
2023-02-18T14:04:43.835Z,175
2023-02-18T14:05:43.732Z,145
2023-02-18T14:06:46.343Z,120
2023-02-18T14:07:44.253Z,110
2023-02-18T14:08:44.455Z,95
2023-02-18T14:09:43.869Z,90
2023-02-18T14:10:44.140Z,90
2023-02-18T14:11:44.551Z,95
2023-02-18T14:12:44.062Z,90
2023-02-18T14:13:43.926Z,105
2023-02-18T14:14:44.958Z,95
2023-02-18T14:15:44.476Z,90
2023-02-18T14:16:44.222Z,85
2023-02-18T14:17:45.274Z,105
2023-02-18T14:18:47.438Z,110
2023-02-18T14:19:46.876Z,130
2023-02-18T14:20:44.504Z,115
2023-02-18T14:21:44.466Z,105
2023-02-18T14:22:44.223Z,110
2023-02-18T14:23:44.994Z,115
2023-02-18T14:24:44.224Z,130
2023-02-18T14:25:44.595Z,100
2023-02-18T14:26:44.761Z,120
2023-02-18T14:27:44.016Z,140
2023-02-18T14:28:44.415Z,145
2023-02-18T14:29:44.355Z,165
2023-02-18T14:30:45.345Z,155
2023-02-18T14:31:45.259Z,200
2023-02-18T14:32:44.119Z,230
2023-02-18T14:33:45.616Z,230
2023-02-18T14:34:44.782Z,220
2023-02-18T14:35:44.555Z,225
2023-02-18T14:36:44.812Z,205
2023-02-18T14:37:44.975Z,235
2023-02-18T14:38:45.340Z,210
2023-02-18T14:39:45.494Z,230
2023-02-18T14:40:44.459Z,180
2023-02-18T14:41:45.240Z,140
2023-02-18T14:42:44.431Z,160
2023-02-18T14:43:44.479Z,210
2023-02-18T14:44:44.036Z,175
2023-02-18T14:45:44.500Z,175
2023-02-18T14:46:44.980Z,160
2023-02-18T14:47:45.128Z,195
2023-02-18T14:48:44.447Z,215
2023-02-18T14:49:44.972Z,235
2023-02-18T14:50:44.916Z,245
2023-02-18T14:51:45.016Z,215
2023-02-18T14:52:45.424Z,225
2023-02-18T14:53:45.951Z,225
2023-02-18T14:54:45.671Z,215
2023-02-18T14:55:45.739Z,185
2023-02-18T14:56:45.630Z,195
2023-02-18T14:57:45.958Z,210
2023-02-18T14:58:45.005Z,205
2023-02-18T14:59:47.670Z,195
2023-02-18T15:00:46.151Z,170
2023-02-18T15:01:44.597Z,170
2023-02-18T15:02:46.603Z,180
2023-02-18T15:03:45.322Z,200
2023-02-18T15:04:44.684Z,210
2023-02-18T15:05:44.830Z,215
2023-02-18T15:06:45.102Z,180
2023-02-18T15:07:44.435Z,155
2023-02-18T15:08:45.016Z,135
2023-02-18T15:09:44.739Z,120
2023-02-18T15:10:46.756Z,130
2023-02-18T15:11:45.584Z,125
2023-02-18T15:12:44.885Z,130
2023-02-18T15:13:44.851Z,115
2023-02-18T15:14:45.108Z,110
2023-02-18T15:15:45.480Z,100
2023-02-18T15:16:45.298Z,75
2023-02-18T15:17:44.128Z,75
2023-02-18T15:18:46.531Z,65
2023-02-18T15:19:45.705Z,70
2023-02-18T15:20:45.347Z,70
2023-02-18T15:21:45.450Z,75
2023-02-18T15:22:45.189Z,70
2023-02-18T15:23:44.652Z,65
2023-02-18T15:24:44.909Z,65
2023-02-18T15:25:44.164Z,60
2023-02-18T15:26:45.300Z,60
2023-02-18T15:27:46.353Z,55
2023-02-18T15:28:44.738Z,55
2023-02-18T15:29:44.529Z,55
2023-02-18T15:30:45.499Z,50
2023-02-18T15:31:45.745Z,55
2023-02-18T15:32:45.476Z,50
2023-02-18T15:33:44.811Z,50
2023-02-18T15:34:45.747Z,45
2023-02-18T15:35:48.315Z,40
2023-02-18T15:36:45.958Z,40
2023-02-18T15:37:46.525Z,40
2023-02-18T15:38:46.548Z,40
2023-02-18T15:39:48.627Z,35
2023-02-18T15:40:46.180Z,35
2023-02-18T15:41:46.815Z,30
2023-02-18T15:42:45.359Z,35
2023-02-18T15:43:45.645Z,40
2023-02-18T15:44:45.198Z,45
2023-02-18T15:45:45.949Z,55
2023-02-18T15:46:45.781Z,55
2023-02-18T15:47:45.450Z,45
2023-02-18T15:48:46.212Z,40
2023-02-18T15:49:45.116Z,35
2023-02-18T15:50:45.430Z,30
2023-02-18T15:51:45.252Z,30
2023-02-18T15:52:45.601Z,25
2023-02-18T15:53:45.569Z,25
2023-02-18T15:54:46.886Z,25
2023-02-18T15:55:44.953Z,25
2023-02-18T15:56:45.478Z,30
2023-02-18T15:57:45.281Z,30
2023-02-18T15:58:45.471Z,25
2023-02-18T15:59:45.998Z,20
2023-02-18T16:00:45.530Z,15
2023-02-18T16:01:46.129Z,15
2023-02-18T16:02:45.324Z,10
2023-02-18T16:03:45.348Z,10
2023-02-18T16:04:45.729Z,10
2023-02-18T16:05:44.748Z,10
2023-02-18T16:06:46.650Z,10
2023-02-18T16:07:45.769Z,10
2023-02-18T16:08:45.565Z,10
2023-02-18T16:09:44.985Z,5
2023-02-18T16:10:46.059Z,5
2023-02-18T16:11:46.051Z,5
2023-02-18T16:12:46.237Z,5
2023-02-18T16:13:45.675Z,5
2023-02-18T16:14:45.539Z,5
2023-02-18T16:15:46.633Z,5
2023-02-18T16:16:47.216Z,5
2023-02-18T16:17:44.614Z,5
2023-02-18T16:18:45.584Z,5
2023-02-18T16:20:08.054Z,5
2023-02-18T16:20:45.464Z,5
2023-02-18T16:21:45.933Z,5
2023-02-18T16:22:45.472Z,5
2023-02-18T16:23:44.827Z,5
2023-02-18T16:24:45.872Z,0
2023-02-18T16:25:45.180Z,0
2023-02-18T16:26:46.318Z,0
2023-02-18T16:27:45.443Z,0
2023-02-18T16:28:45.304Z,0
2023-02-18T16:29:45.610Z,0
2023-02-18T16:30:45.663Z,0
2023-02-18T16:31:46.998Z,0
2023-02-18T16:32:45.921Z,0
2023-02-18T16:33:47.851Z,0
2023-02-18T16:34:46.174Z,0
2023-02-18T16:35:59.489Z,0
2023-02-18T16:36:45.860Z,0
2023-02-18T16:37:46.154Z,0
2023-02-18T16:38:45.587Z,0
2023-02-18T16:39:46.086Z,0
2023-02-18T16:40:45.621Z,0
2023-02-18T16:41:45.757Z,0
2023-02-18T16:42:47.928Z,0
2023-02-18T16:43:45.487Z,0
2023-02-18T16:44:45.926Z,0
2023-02-18T16:45:48.268Z,0
2023-02-18T16:46:46.108Z,0
2023-02-18T16:47:46.296Z,0
2023-02-18T16:48:46.434Z,0
2023-02-18T16:49:45.567Z,0
2023-02-18T16:50:46.312Z,0
2023-02-18T16:51:47.050Z,0
2023-02-18T16:52:46.717Z,0
2023-02-18T16:53:45.783Z,0
2023-02-18T16:54:45.829Z,0
2023-02-18T16:55:45.864Z,0
2023-02-18T16:56:46.250Z,0
2023-02-18T16:57:47.471Z,0
2023-02-18T16:58:45.192Z,0
2023-02-18T16:59:45.764Z,0
2023-02-18T17:00:46.205Z,0
2023-02-18T17:01:45.854Z,0
2023-02-18T17:02:45.806Z,0
2023-02-18T17:03:48.833Z,0
2023-02-18T17:04:46.553Z,0
2023-02-18T17:05:46.594Z,0
2023-02-18T17:06:46.359Z,0
2023-02-18T17:07:46.638Z,0
2023-02-18T17:08:48.299Z,0
2023-02-18T17:09:46.510Z,0
2023-02-18T17:10:45.711Z,0
2023-02-18T17:11:46.773Z,0
2023-02-18T17:12:46.822Z,0
2023-02-18T17:13:45.380Z,0
2023-02-18T17:14:46.630Z,0
2023-02-18T17:15:46.865Z,0
2023-02-18T17:16:46.263Z,0
2023-02-18T17:17:46.573Z,0
2023-02-18T17:18:45.710Z,0
2023-02-18T17:19:46.145Z,0
2023-02-18T17:20:45.987Z,0
2023-02-18T17:21:48.337Z,0
2023-02-18T17:22:45.658Z,0
2023-02-18T17:23:45.729Z,0
2023-02-18T17:24:45.806Z,0
2023-02-18T17:25:46.640Z,0
2023-02-18T17:26:46.411Z,0
2023-02-18T17:27:47.989Z,0
2023-02-18T17:28:46.984Z,0
2023-02-18T17:29:46.508Z,0
2023-02-18T17:30:47.004Z,0
2023-02-18T17:31:46.488Z,0
2023-02-18T17:32:46.376Z,0
2023-02-18T17:33:47.245Z,0
2023-02-18T17:34:45.822Z,0
2023-02-18T17:35:46.858Z,0
2023-02-18T17:36:47.795Z,0
2023-02-18T17:37:46.731Z,0
2023-02-18T17:38:47.389Z,0
2023-02-18T17:39:46.211Z,0
2023-02-18T17:40:46.000Z,0
2023-02-18T17:41:46.620Z,0
2023-02-18T17:42:45.640Z,0
2023-02-18T17:43:46.526Z,0
2023-02-18T17:44:46.248Z,0
2023-02-18T17:45:46.220Z,0
2023-02-18T17:46:46.354Z,0
2023-02-18T17:47:46.022Z,0
2023-02-18T17:48:46.746Z,0
2023-02-18T17:49:46.156Z,0
2023-02-18T17:50:46.722Z,0
2023-02-18T17:51:46.051Z,0
2023-02-18T17:52:46.495Z,0
2023-02-18T17:53:46.081Z,0
2023-02-18T17:54:45.937Z,0
2023-02-18T17:55:46.401Z,0
2023-02-18T17:56:46.377Z,0
2023-02-18T17:57:46.230Z,0
2023-02-18T17:58:46.880Z,0
2023-02-18T17:59:46.732Z,0
2023-02-18T18:00:47.168Z,0
2023-02-18T18:01:46.701Z,0
2023-02-18T18:02:46.523Z,0
2023-02-18T18:03:46.100Z,0
2023-02-18T18:04:47.450Z,0
2023-02-18T18:05:48.923Z,0
2023-02-18T18:06:46.834Z,0
2023-02-18T18:07:45.949Z,0
2023-02-18T18:08:47.406Z,0
2023-02-18T18:09:46.505Z,0
2023-02-18T18:10:47.088Z,0
2023-02-18T18:11:46.539Z,0
2023-02-18T18:12:46.186Z,0
2023-02-18T18:13:46.482Z,0
2023-02-18T18:14:46.789Z,0
2023-02-18T18:15:46.011Z,0
2023-02-18T18:16:46.635Z,0
2023-02-18T18:17:46.002Z,0
2023-02-18T18:18:47.053Z,0
2023-02-18T18:19:47.156Z,0
2023-02-18T18:20:47.275Z,0
2023-02-18T18:21:47.312Z,0
2023-02-18T18:22:46.615Z,0
2023-02-18T18:23:46.094Z,0
2023-02-18T18:24:48.089Z,0
2023-02-18T18:25:46.369Z,0
2023-02-18T18:26:47.057Z,0
2023-02-18T18:27:47.144Z,0
2023-02-18T18:28:47.093Z,0
2023-02-18T18:29:47.448Z,0
2023-02-18T18:30:47.514Z,0
2023-02-18T18:31:47.434Z,0
2023-02-18T18:32:47.025Z,0
2023-02-18T18:33:46.353Z,0
2023-02-18T18:34:48.967Z,0
2023-02-18T18:35:47.468Z,0
2023-02-18T18:36:46.420Z,0
2023-02-18T18:37:47.335Z,0
2023-02-18T18:38:47.009Z,0
2023-02-18T18:39:47.373Z,0
2023-02-18T18:40:48.350Z,0
2023-02-18T18:41:46.267Z,0
2023-02-18T18:42:47.757Z,0
2023-02-18T18:43:46.087Z,0
2023-02-18T18:44:46.429Z,0
2023-02-18T18:45:46.657Z,0
2023-02-18T18:46:47.024Z,0
2023-02-18T18:47:47.234Z,0
2023-02-18T18:48:46.785Z,0
2023-02-18T18:49:47.381Z,0
2023-02-18T18:50:46.907Z,0
2023-02-18T18:51:46.951Z,0
2023-02-18T18:52:46.790Z,0
2023-02-18T18:53:47.493Z,0
2023-02-18T18:54:47.457Z,0
2023-02-18T18:55:47.499Z,0
2023-02-18T18:56:48.138Z,0
2023-02-18T18:57:49.267Z,0
2023-02-18T18:58:47.487Z,0
2023-02-18T18:59:47.700Z,0
2023-02-18T19:00:47.765Z,0
2023-02-18T19:01:48.601Z,0
2023-02-18T19:02:47.147Z,0
2023-02-18T19:03:46.626Z,0
2023-02-18T19:04:46.696Z,0
2023-02-18T19:05:46.620Z,0
2023-02-18T19:06:47.195Z,0
2023-02-18T19:07:47.799Z,0
2023-02-18T19:08:46.964Z,0
2023-02-18T19:09:47.222Z,0
2023-02-18T19:10:46.981Z,0
2023-02-18T19:11:47.143Z,0
2023-02-18T19:12:47.588Z,0
2023-02-18T19:13:47.250Z,0
2023-02-18T19:14:47.824Z,0
2023-02-18T19:15:48.408Z,0
2023-02-18T19:16:46.715Z,0
2023-02-18T19:17:48.330Z,0
2023-02-18T19:18:47.778Z,0
2023-02-18T19:19:47.210Z,0
2023-02-18T19:20:49.383Z,0
2023-02-18T19:21:47.350Z,0
2023-02-18T19:22:47.458Z,0
2023-02-18T19:23:47.221Z,0
2023-02-18T19:24:47.507Z,0
2023-02-18T19:25:47.770Z,0
2023-02-18T19:26:46.923Z,0
2023-02-18T19:27:47.057Z,0
2023-02-18T19:28:47.895Z,0
2023-02-18T19:29:47.318Z,0
2023-02-18T19:30:48.096Z,0
2023-02-18T19:31:48.531Z,0
2023-02-18T19:32:46.934Z,0
2023-02-18T19:33:46.701Z,0
2023-02-18T19:34:48.222Z,0
2023-02-18T19:35:47.314Z,0
2023-02-18T19:36:48.968Z,0
2023-02-18T19:37:47.306Z,0
2023-02-18T19:38:46.930Z,0
2023-02-18T19:39:47.450Z,0
2023-02-18T19:40:47.661Z,0
2023-02-18T19:41:46.905Z,0
2023-02-18T19:42:50.249Z,0
2023-02-18T19:43:47.188Z,0
2023-02-18T19:44:47.529Z,0
2023-02-18T19:45:50.097Z,0
2023-02-18T19:46:48.481Z,0
2023-02-18T19:47:47.371Z,0
2023-02-18T19:48:47.675Z,0
2023-02-18T19:49:47.055Z,0
2023-02-18T19:50:47.842Z,0
2023-02-18T19:51:47.240Z,0
2023-02-18T19:52:48.200Z,0
2023-02-18T19:53:48.202Z,0
2023-02-18T19:54:47.305Z,0
2023-02-18T19:55:48.071Z,0
2023-02-18T19:56:48.013Z,0
2023-02-18T19:57:47.838Z,0
2023-02-18T19:58:47.944Z,0
2023-02-18T19:59:47.170Z,0
2023-02-18T20:00:47.802Z,0
2023-02-18T20:01:47.858Z,0
2023-02-18T20:02:47.895Z,0
2023-02-18T20:03:48.458Z,0
2023-02-18T20:04:47.982Z,0
2023-02-18T20:05:47.434Z,0
2023-02-18T20:06:48.063Z,0
2023-02-18T20:07:47.972Z,0
2023-02-18T20:08:48.205Z,0